sensor_id;sensor_type;location;lat;lon;timestamp;P1;durP1;ratioP1;P2;durP2;ratioP2
37955;SDS011;23776;51.592;7.180;2023-08-07T00:00:33;8.18;;;2.70;;
37955;SDS011;23776;51.592;7.180;2023-08-07T00:02:59;5.10;;;1.73;;
37955;SDS011;23776;51.592;7.180;2023-08-07T00:05:24;4.50;;;2.15;;
37955;SDS011;23776;51.592;7.180;2023-08-07T00:07:50;6.30;;;3.58;;
37955;SDS011;23776;51.592;7.180;2023-08-07T00:10:16;5.65;;;3.30;;
37955;SDS011;23776;51.592;7.180;2023-08-07T00:12:42;8.02;;;3.65;;
37955;SDS011;23776;51.592;7.180;2023-08-07T00:15:08;7.25;;;3.47;;
37955;SDS011;23776;51.592;7.180;2023-08-07T00:17:34;6.15;;;2.97;;
37955;SDS011;23776;51.592;7.180;2023-08-07T00:19:59;6.45;;;3.20;;
37955;SDS011;23776;51.592;7.180;2023-08-07T00:22:25;4.55;;;3.08;;
37955;SDS011;23776;51.592;7.180;2023-08-07T00:24:51;7.25;;;3.00;;
37955;SDS011;23776;51.592;7.180;2023-08-07T00:27:16;7.10;;;2.38;;
37955;SDS011;23776;51.592;7.180;2023-08-07T00:29:42;7.40;;;1.30;;
37955;SDS011;23776;51.592;7.180;2023-08-07T00:32:07;5.90;;;1.20;;
37955;SDS011;23776;51.592;7.180;2023-08-07T00:34:33;4.65;;;0.93;;
37955;SDS011;23776;51.592;7.180;2023-08-07T00:36:59;3.80;;;1.27;;
37955;SDS011;23776;51.592;7.180;2023-08-07T00:39:24;3.30;;;1.10;;
37955;SDS011;23776;51.592;7.180;2023-08-07T00:41:50;6.72;;;1.30;;
37955;SDS011;23776;51.592;7.180;2023-08-07T00:44:16;5.30;;;1.02;;
37955;SDS011;23776;51.592;7.180;2023-08-07T00:46:41;6.05;;;1.27;;
37955;SDS011;23776;51.592;7.180;2023-08-07T00:49:08;8.98;;;1.30;;
37955;SDS011;23776;51.592;7.180;2023-08-07T00:51:36;4.53;;;1.38;;
37955;SDS011;23776;51.592;7.180;2023-08-07T00:54:03;10.38;;;1.75;;
37955;SDS011;23776;51.592;7.180;2023-08-07T00:56:30;10.43;;;2.00;;
37955;SDS011;23776;51.592;7.180;2023-08-07T00:58:57;3.45;;;1.65;;
37955;SDS011;23776;51.592;7.180;2023-08-07T01:01:26;9.13;;;2.30;;
37955;SDS011;23776;51.592;7.180;2023-08-07T01:03:52;10.18;;;2.97;;
37955;SDS011;23776;51.592;7.180;2023-08-07T01:06:18;9.10;;;3.70;;
37955;SDS011;23776;51.592;7.180;2023-08-07T01:08:43;10.00;;;3.70;;
37955;SDS011;23776;51.592;7.180;2023-08-07T01:19:24;8.13;;;3.97;;
37955;SDS011;23776;51.592;7.180;2023-08-07T01:22:15;10.60;;;4.13;;
37955;SDS011;23776;51.592;7.180;2023-08-07T01:24:43;11.48;;;4.45;;
37955;SDS011;23776;51.592;7.180;2023-08-07T01:27:24;12.35;;;5.38;;
37955;SDS011;23776;51.592;7.180;2023-08-07T01:32:49;12.35;;;6.45;;
37955;SDS011;23776;51.592;7.180;2023-08-07T01:35:20;17.35;;;6.63;;
37955;SDS011;23776;51.592;7.180;2023-08-07T01:37:51;14.95;;;5.85;;
37955;SDS011;23776;51.592;7.180;2023-08-07T01:40:20;14.15;;;5.70;;
37955;SDS011;23776;51.592;7.180;2023-08-07T01:42:47;12.85;;;5.30;;
37955;SDS011;23776;51.592;7.180;2023-08-07T01:45:13;13.38;;;5.75;;
37955;SDS011;23776;51.592;7.180;2023-08-07T01:47:39;10.32;;;4.35;;
37955;SDS011;23776;51.592;7.180;2023-08-07T01:50:05;16.65;;;5.93;;
37955;SDS011;23776;51.592;7.180;2023-08-07T01:52:31;16.55;;;5.13;;
37955;SDS011;23776;51.592;7.180;2023-08-07T01:54:57;11.60;;;5.40;;
37955;SDS011;23776;51.592;7.180;2023-08-07T01:57:23;10.45;;;4.88;;
37955;SDS011;23776;51.592;7.180;2023-08-07T01:59:48;9.38;;;3.50;;
37955;SDS011;23776;51.592;7.180;2023-08-07T02:02:14;7.53;;;3.08;;
37955;SDS011;23776;51.592;7.180;2023-08-07T02:04:39;7.75;;;2.85;;
37955;SDS011;23776;51.592;7.180;2023-08-07T02:07:05;8.18;;;2.50;;
37955;SDS011;23776;51.592;7.180;2023-08-07T02:09:30;6.78;;;2.35;;
37955;SDS011;23776;51.592;7.180;2023-08-07T02:11:56;10.75;;;2.90;;
37955;SDS011;23776;51.592;7.180;2023-08-07T02:14:21;6.22;;;2.30;;
37955;SDS011;23776;51.592;7.180;2023-08-07T02:16:47;8.95;;;3.00;;
37955;SDS011;23776;51.592;7.180;2023-08-07T02:19:13;5.68;;;3.58;;
37955;SDS011;23776;51.592;7.180;2023-08-07T02:21:38;7.43;;;3.53;;
37955;SDS011;23776;51.592;7.180;2023-08-07T02:24:04;8.45;;;3.67;;
37955;SDS011;23776;51.592;7.180;2023-08-07T02:26:30;8.18;;;4.55;;
37955;SDS011;23776;51.592;7.180;2023-08-07T02:28:55;9.43;;;5.00;;
37955;SDS011;23776;51.592;7.180;2023-08-07T02:31:21;10.88;;;5.97;;
37955;SDS011;23776;51.592;7.180;2023-08-07T02:33:46;10.10;;;5.82;;
37955;SDS011;23776;51.592;7.180;2023-08-07T02:36:12;14.13;;;5.95;;
37955;SDS011;23776;51.592;7.180;2023-08-07T02:38:37;7.32;;;4.65;;
37955;SDS011;23776;51.592;7.180;2023-08-07T02:41:03;9.45;;;3.80;;
37955;SDS011;23776;51.592;7.180;2023-08-07T02:43:28;7.78;;;4.18;;
37955;SDS011;23776;51.592;7.180;2023-08-07T02:45:54;8.45;;;3.00;;
37955;SDS011;23776;51.592;7.180;2023-08-07T02:48:20;4.07;;;2.25;;
37955;SDS011;23776;51.592;7.180;2023-08-07T02:50:46;5.18;;;1.75;;
37955;SDS011;23776;51.592;7.180;2023-08-07T02:53:11;6.68;;;1.73;;
37955;SDS011;23776;51.592;7.180;2023-08-07T02:55:37;5.13;;;1.20;;
37955;SDS011;23776;51.592;7.180;2023-08-07T02:58:02;10.57;;;1.40;;
37955;SDS011;23776;51.592;7.180;2023-08-07T03:00:28;4.95;;;1.42;;
37955;SDS011;23776;51.592;7.180;2023-08-07T03:02:54;4.20;;;1.65;;
37955;SDS011;23776;51.592;7.180;2023-08-07T03:05:19;11.38;;;1.85;;
37955;SDS011;23776;51.592;7.180;2023-08-07T03:07:45;3.88;;;1.40;;
37955;SDS011;23776;51.592;7.180;2023-08-07T03:10:10;4.32;;;1.30;;
37955;SDS011;23776;51.592;7.180;2023-08-07T03:12:36;3.20;;;1.40;;
37955;SDS011;23776;51.592;7.180;2023-08-07T03:15:03;3.10;;;1.23;;
37955;SDS011;23776;51.592;7.180;2023-08-07T03:17:30;7.00;;;1.52;;
37955;SDS011;23776;51.592;7.180;2023-08-07T03:19:55;5.65;;;1.50;;
37955;SDS011;23776;51.592;7.180;2023-08-07T03:22:21;5.80;;;1.77;;
37955;SDS011;23776;51.592;7.180;2023-08-07T03:24:47;3.15;;;1.60;;
37955;SDS011;23776;51.592;7.180;2023-08-07T03:27:13;9.90;;;2.03;;
37955;SDS011;23776;51.592;7.180;2023-08-07T03:29:39;9.45;;;2.85;;
37955;SDS011;23776;51.592;7.180;2023-08-07T03:32:04;12.88;;;3.38;;
37955;SDS011;23776;51.592;7.180;2023-08-07T03:34:30;11.93;;;3.25;;
37955;SDS011;23776;51.592;7.180;2023-08-07T03:36:56;7.90;;;3.25;;
37955;SDS011;23776;51.592;7.180;2023-08-07T03:39:21;16.60;;;3.80;;
37955;SDS011;23776;51.592;7.180;2023-08-07T03:41:47;12.50;;;4.57;;
37955;SDS011;23776;51.592;7.180;2023-08-07T03:44:14;19.27;;;4.53;;
37955;SDS011;23776;51.592;7.180;2023-08-07T03:46:39;16.20;;;5.95;;
37955;SDS011;23776;51.592;7.180;2023-08-07T03:49:05;16.20;;;5.85;;
37955;SDS011;23776;51.592;7.180;2023-08-07T03:51:31;20.88;;;6.70;;
37955;SDS011;23776;51.592;7.180;2023-08-07T03:53:57;14.93;;;6.78;;
37955;SDS011;23776;51.592;7.180;2023-08-07T03:56:22;18.13;;;6.57;;
37955;SDS011;23776;51.592;7.180;2023-08-07T03:58:48;20.98;;;7.28;;
37955;SDS011;23776;51.592;7.180;2023-08-07T04:01:15;26.90;;;6.32;;
37955;SDS011;23776;51.592;7.180;2023-08-07T04:03:41;26.08;;;6.93;;
37955;SDS011;23776;51.592;7.180;2023-08-07T04:06:07;14.55;;;6.07;;
37955;SDS011;23776;51.592;7.180;2023-08-07T04:08:33;20.35;;;6.60;;
37955;SDS011;23776;51.592;7.180;2023-08-07T04:10:59;15.00;;;5.57;;
37955;SDS011;23776;51.592;7.180;2023-08-07T04:13:29;18.67;;;6.15;;
37955;SDS011;23776;51.592;7.180;2023-08-07T04:15:55;23.27;;;7.38;;
37955;SDS011;23776;51.592;7.180;2023-08-07T04:18:20;17.63;;;6.88;;
37955;SDS011;23776;51.592;7.180;2023-08-07T04:20:50;21.48;;;5.95;;
37955;SDS011;23776;51.592;7.180;2023-08-07T04:23:17;13.90;;;6.60;;
37955;SDS011;23776;51.592;7.180;2023-08-07T04:25:43;17.98;;;6.00;;
37955;SDS011;23776;51.592;7.180;2023-08-07T04:28:09;14.40;;;5.10;;
37955;SDS011;23776;51.592;7.180;2023-08-07T04:30:34;19.52;;;5.57;;
37955;SDS011;23776;51.592;7.180;2023-08-07T04:33:00;17.58;;;5.32;;
37955;SDS011;23776;51.592;7.180;2023-08-07T04:35:25;18.95;;;5.28;;
37955;SDS011;23776;51.592;7.180;2023-08-07T04:37:51;15.77;;;6.15;;
37955;SDS011;23776;51.592;7.180;2023-08-07T04:40:17;21.55;;;6.93;;
37955;SDS011;23776;51.592;7.180;2023-08-07T04:42:42;23.00;;;6.93;;
37955;SDS011;23776;51.592;7.180;2023-08-07T04:45:08;22.05;;;8.07;;
37955;SDS011;23776;51.592;7.180;2023-08-07T04:47:34;17.83;;;6.82;;
37955;SDS011;23776;51.592;7.180;2023-08-07T04:50:00;17.85;;;7.50;;
37955;SDS011;23776;51.592;7.180;2023-08-07T04:52:26;16.90;;;6.88;;
37955;SDS011;23776;51.592;7.180;2023-08-07T04:54:52;23.75;;;8.10;;
37955;SDS011;23776;51.592;7.180;2023-08-07T04:57:17;20.95;;;7.07;;
37955;SDS011;23776;51.592;7.180;2023-08-07T04:59:43;18.90;;;6.32;;
37955;SDS011;23776;51.592;7.180;2023-08-07T05:02:09;17.83;;;5.97;;
37955;SDS011;23776;51.592;7.180;2023-08-07T05:04:35;12.25;;;5.47;;
37955;SDS011;23776;51.592;7.180;2023-08-07T05:07:00;19.13;;;5.40;;
37955;SDS011;23776;51.592;7.180;2023-08-07T05:09:26;18.90;;;5.68;;
37955;SDS011;23776;51.592;7.180;2023-08-07T05:11:51;20.33;;;5.97;;
37955;SDS011;23776;51.592;7.180;2023-08-07T05:14:17;16.45;;;5.55;;
37955;SDS011;23776;51.592;7.180;2023-08-07T05:16:42;16.90;;;4.30;;
37955;SDS011;23776;51.592;7.180;2023-08-07T05:19:08;22.35;;;4.80;;
37955;SDS011;23776;51.592;7.180;2023-08-07T05:21:33;22.33;;;5.57;;
37955;SDS011;23776;51.592;7.180;2023-08-07T05:23:59;12.90;;;3.92;;
37955;SDS011;23776;51.592;7.180;2023-08-07T05:26:25;15.60;;;4.85;;
37955;SDS011;23776;51.592;7.180;2023-08-07T05:28:50;11.70;;;3.60;;
37955;SDS011;23776;51.592;7.180;2023-08-07T05:31:16;14.68;;;3.67;;
37955;SDS011;23776;51.592;7.180;2023-08-07T05:33:41;11.45;;;4.10;;
37955;SDS011;23776;51.592;7.180;2023-08-07T05:36:07;12.77;;;3.65;;
37955;SDS011;23776;51.592;7.180;2023-08-07T05:38:33;8.48;;;3.72;;
37955;SDS011;23776;51.592;7.180;2023-08-07T05:40:58;17.35;;;5.05;;
37955;SDS011;23776;51.592;7.180;2023-08-07T05:43:24;12.23;;;4.50;;
37955;SDS011;23776;51.592;7.180;2023-08-07T05:45:50;9.52;;;4.03;;
37955;SDS011;23776;51.592;7.180;2023-08-07T05:48:16;13.88;;;4.55;;
37955;SDS011;23776;51.592;7.180;2023-08-07T05:50:42;15.15;;;4.45;;
37955;SDS011;23776;51.592;7.180;2023-08-07T05:53:07;14.57;;;4.03;;
37955;SDS011;23776;51.592;7.180;2023-08-07T05:55:33;12.35;;;4.40;;
37955;SDS011;23776;51.592;7.180;2023-08-07T05:57:59;14.40;;;4.13;;
37955;SDS011;23776;51.592;7.180;2023-08-07T06:00:25;14.25;;;4.57;;
37955;SDS011;23776;51.592;7.180;2023-08-07T06:02:51;8.95;;;4.05;;
37955;SDS011;23776;51.592;7.180;2023-08-07T06:05:16;16.30;;;3.90;;
37955;SDS011;23776;51.592;7.180;2023-08-07T06:07:42;17.98;;;6.07;;
37955;SDS011;23776;51.592;7.180;2023-08-07T06:10:08;18.85;;;6.75;;
37955;SDS011;23776;51.592;7.180;2023-08-07T06:12:33;19.00;;;6.43;;
37955;SDS011;23776;51.592;7.180;2023-08-07T06:14:59;16.08;;;7.25;;
37955;SDS011;23776;51.592;7.180;2023-08-07T06:17:25;17.48;;;8.48;;
37955;SDS011;23776;51.592;7.180;2023-08-07T06:19:51;21.02;;;10.02;;
37955;SDS011;23776;51.592;7.180;2023-08-07T06:22:17;21.00;;;10.63;;
37955;SDS011;23776;51.592;7.180;2023-08-07T06:24:42;20.30;;;11.02;;
37955;SDS011;23776;51.592;7.180;2023-08-07T06:27:08;24.63;;;10.60;;
37955;SDS011;23776;51.592;7.180;2023-08-07T06:29:35;22.92;;;11.95;;
37955;SDS011;23776;51.592;7.180;2023-08-07T06:32:00;25.00;;;11.90;;
37955;SDS011;23776;51.592;7.180;2023-08-07T06:34:26;21.40;;;10.20;;
37955;SDS011;23776;51.592;7.180;2023-08-07T06:36:52;17.33;;;8.93;;
37955;SDS011;23776;51.592;7.180;2023-08-07T06:39:18;18.50;;;8.40;;
37955;SDS011;23776;51.592;7.180;2023-08-07T06:41:44;17.23;;;8.60;;
37955;SDS011;23776;51.592;7.180;2023-08-07T06:44:09;17.10;;;8.35;;
37955;SDS011;23776;51.592;7.180;2023-08-07T06:46:35;23.88;;;8.02;;
37955;SDS011;23776;51.592;7.180;2023-08-07T06:49:01;19.42;;;7.45;;
37955;SDS011;23776;51.592;7.180;2023-08-07T06:51:27;19.88;;;6.65;;
37955;SDS011;23776;51.592;7.180;2023-08-07T06:53:52;16.92;;;7.10;;
37955;SDS011;23776;51.592;7.180;2023-08-07T06:56:18;18.85;;;7.45;;
37955;SDS011;23776;51.592;7.180;2023-08-07T06:58:44;15.63;;;7.90;;
37955;SDS011;23776;51.592;7.180;2023-08-07T07:01:10;18.38;;;8.45;;
37955;SDS011;23776;51.592;7.180;2023-08-07T07:03:36;14.68;;;7.15;;
37955;SDS011;23776;51.592;7.180;2023-08-07T07:06:01;15.50;;;7.22;;
37955;SDS011;23776;51.592;7.180;2023-08-07T07:08:27;13.63;;;6.57;;
37955;SDS011;23776;51.592;7.180;2023-08-07T07:10:52;12.38;;;5.53;;
37955;SDS011;23776;51.592;7.180;2023-08-07T07:13:18;16.55;;;6.13;;
37955;SDS011;23776;51.592;7.180;2023-08-07T07:15:44;15.88;;;5.45;;
37955;SDS011;23776;51.592;7.180;2023-08-07T07:18:10;12.48;;;4.70;;
37955;SDS011;23776;51.592;7.180;2023-08-07T07:20:36;9.52;;;4.22;;
37955;SDS011;23776;51.592;7.180;2023-08-07T07:23:01;11.38;;;4.25;;
37955;SDS011;23776;51.592;7.180;2023-08-07T07:25:27;10.20;;;4.90;;
37955;SDS011;23776;51.592;7.180;2023-08-07T07:27:52;10.63;;;3.75;;
37955;SDS011;23776;51.592;7.180;2023-08-07T07:30:18;6.93;;;3.88;;
37955;SDS011;23776;51.592;7.180;2023-08-07T07:32:44;7.15;;;3.90;;
37955;SDS011;23776;51.592;7.180;2023-08-07T07:35:11;9.68;;;3.67;;
37955;SDS011;23776;51.592;7.180;2023-08-07T07:37:36;10.38;;;3.60;;
37955;SDS011;23776;51.592;7.180;2023-08-07T07:40:02;9.73;;;4.25;;
37955;SDS011;23776;51.592;7.180;2023-08-07T07:42:28;14.20;;;4.20;;
37955;SDS011;23776;51.592;7.180;2023-08-07T07:44:54;6.07;;;3.47;;
37955;SDS011;23776;51.592;7.180;2023-08-07T07:47:19;9.15;;;4.07;;
37955;SDS011;23776;51.592;7.180;2023-08-07T07:49:46;11.93;;;3.83;;
37955;SDS011;23776;51.592;7.180;2023-08-07T07:52:15;9.35;;;3.78;;
37955;SDS011;23776;51.592;7.180;2023-08-07T07:54:40;9.20;;;3.17;;
37955;SDS011;23776;51.592;7.180;2023-08-07T07:57:07;10.57;;;3.35;;
37955;SDS011;23776;51.592;7.180;2023-08-07T07:59:32;17.15;;;3.80;;
37955;SDS011;23776;51.592;7.180;2023-08-07T08:01:58;11.27;;;3.53;;
37955;SDS011;23776;51.592;7.180;2023-08-07T08:04:24;13.00;;;3.88;;
37955;SDS011;23776;51.592;7.180;2023-08-07T08:06:49;8.52;;;3.30;;
37955;SDS011;23776;51.592;7.180;2023-08-07T08:09:16;13.10;;;3.50;;
37955;SDS011;23776;51.592;7.180;2023-08-07T08:11:41;9.98;;;3.22;;
37955;SDS011;23776;51.592;7.180;2023-08-07T08:14:08;9.02;;;3.25;;
37955;SDS011;23776;51.592;7.180;2023-08-07T08:16:34;10.13;;;3.10;;
37955;SDS011;23776;51.592;7.180;2023-08-07T08:18:59;10.43;;;2.70;;
37955;SDS011;23776;51.592;7.180;2023-08-07T08:21:25;4.20;;;2.10;;
37955;SDS011;23776;51.592;7.180;2023-08-07T08:23:50;11.77;;;4.03;;
37955;SDS011;23776;51.592;7.180;2023-08-07T08:26:16;7.93;;;1.80;;
37955;SDS011;23776;51.592;7.180;2023-08-07T08:28:42;4.60;;;2.05;;
37955;SDS011;23776;51.592;7.180;2023-08-07T08:31:08;7.97;;;1.90;;
37955;SDS011;23776;51.592;7.180;2023-08-07T08:33:33;5.63;;;2.42;;
37955;SDS011;23776;51.592;7.180;2023-08-07T08:35:59;7.30;;;1.70;;
37955;SDS011;23776;51.592;7.180;2023-08-07T08:38:25;6.15;;;2.03;;
37955;SDS011;23776;51.592;7.180;2023-08-07T08:40:57;8.02;;;2.30;;
37955;SDS011;23776;51.592;7.180;2023-08-07T08:43:26;7.10;;;2.22;;
37955;SDS011;23776;51.592;7.180;2023-08-07T08:45:53;5.97;;;1.88;;
37955;SDS011;23776;51.592;7.180;2023-08-07T08:48:19;6.30;;;2.72;;
37955;SDS011;23776;51.592;7.180;2023-08-07T08:50:49;7.68;;;2.78;;
37955;SDS011;23776;51.592;7.180;2023-08-07T08:53:15;16.83;;;3.05;;
37955;SDS011;23776;51.592;7.180;2023-08-07T08:55:41;11.93;;;3.38;;
37955;SDS011;23776;51.592;7.180;2023-08-07T08:58:12;13.65;;;4.00;;
37955;SDS011;23776;51.592;7.180;2023-08-07T09:00:40;18.02;;;4.40;;
37955;SDS011;23776;51.592;7.180;2023-08-07T09:03:06;12.40;;;4.15;;
37955;SDS011;23776;51.592;7.180;2023-08-07T09:05:33;15.38;;;5.25;;
37955;SDS011;23776;51.592;7.180;2023-08-07T09:08:00;15.15;;;5.40;;
37955;SDS011;23776;51.592;7.180;2023-08-07T09:10:26;18.98;;;4.75;;
37955;SDS011;23776;51.592;7.180;2023-08-07T09:12:57;15.52;;;4.30;;
37955;SDS011;23776;51.592;7.180;2023-08-07T09:15:29;16.05;;;5.00;;
37955;SDS011;23776;51.592;7.180;2023-08-07T09:17:55;16.55;;;4.55;;
37955;SDS011;23776;51.592;7.180;2023-08-07T09:20:21;18.15;;;5.22;;
37955;SDS011;23776;51.592;7.180;2023-08-07T09:22:47;20.58;;;4.93;;
37955;SDS011;23776;51.592;7.180;2023-08-07T09:25:14;19.30;;;4.82;;
37955;SDS011;23776;51.592;7.180;2023-08-07T09:27:39;18.38;;;4.20;;
37955;SDS011;23776;51.592;7.180;2023-08-07T09:30:06;16.63;;;4.38;;
37955;SDS011;23776;51.592;7.180;2023-08-07T09:32:35;19.80;;;4.30;;
37955;SDS011;23776;51.592;7.180;2023-08-07T09:35:02;19.60;;;4.30;;
37955;SDS011;23776;51.592;7.180;2023-08-07T09:37:29;17.52;;;4.15;;
37955;SDS011;23776;51.592;7.180;2023-08-07T09:39:55;17.35;;;4.05;;
37955;SDS011;23776;51.592;7.180;2023-08-07T09:42:21;17.05;;;3.88;;
37955;SDS011;23776;51.592;7.180;2023-08-07T09:44:46;13.95;;;4.65;;
37955;SDS011;23776;51.592;7.180;2023-08-07T09:47:17;11.40;;;3.83;;
37955;SDS011;23776;51.592;7.180;2023-08-07T09:49:44;17.77;;;4.30;;
37955;SDS011;23776;51.592;7.180;2023-08-07T09:52:11;12.95;;;3.85;;
37955;SDS011;23776;51.592;7.180;2023-08-07T09:54:39;8.93;;;3.25;;
37955;SDS011;23776;51.592;7.180;2023-08-07T09:57:05;11.57;;;3.22;;
37955;SDS011;23776;51.592;7.180;2023-08-07T09:59:32;15.15;;;3.22;;
37955;SDS011;23776;51.592;7.180;2023-08-07T10:01:58;18.55;;;3.58;;
37955;SDS011;23776;51.592;7.180;2023-08-07T10:04:29;11.27;;;3.10;;
37955;SDS011;23776;51.592;7.180;2023-08-07T10:06:55;12.00;;;2.95;;
37955;SDS011;23776;51.592;7.180;2023-08-07T10:09:22;13.50;;;4.68;;
37955;SDS011;23776;51.592;7.180;2023-08-07T10:11:51;17.85;;;3.13;;
37955;SDS011;23776;51.592;7.180;2023-08-07T10:14:17;20.08;;;3.65;;
37955;SDS011;23776;51.592;7.180;2023-08-07T10:16:43;11.25;;;3.63;;
37955;SDS011;23776;51.592;7.180;2023-08-07T10:19:11;14.00;;;3.67;;
37955;SDS011;23776;51.592;7.180;2023-08-07T10:21:38;10.02;;;3.45;;
37955;SDS011;23776;51.592;7.180;2023-08-07T10:24:06;15.73;;;4.90;;
37955;SDS011;23776;51.592;7.180;2023-08-07T10:26:33;13.68;;;3.83;;
37955;SDS011;23776;51.592;7.180;2023-08-07T10:29:00;12.60;;;4.32;;
37955;SDS011;23776;51.592;7.180;2023-08-07T10:31:29;15.73;;;3.95;;
37955;SDS011;23776;51.592;7.180;2023-08-07T10:33:56;16.67;;;4.07;;
37955;SDS011;23776;51.592;7.180;2023-08-07T10:36:22;16.60;;;3.38;;
37955;SDS011;23776;51.592;7.180;2023-08-07T10:38:50;19.25;;;3.40;;
37955;SDS011;23776;51.592;7.180;2023-08-07T10:41:38;9.07;;;3.60;;
37955;SDS011;23776;51.592;7.180;2023-08-07T10:44:08;13.38;;;4.00;;
37955;SDS011;23776;51.592;7.180;2023-08-07T10:46:52;16.02;;;4.85;;
37955;SDS011;23776;51.592;7.180;2023-08-07T10:51:58;13.73;;;3.42;;
37955;SDS011;23776;51.592;7.180;2023-08-07T10:54:26;12.32;;;3.40;;
37955;SDS011;23776;51.592;7.180;2023-08-07T10:56:53;12.85;;;3.47;;
37955;SDS011;23776;51.592;7.180;2023-08-07T10:59:22;16.83;;;4.03;;
37955;SDS011;23776;51.592;7.180;2023-08-07T11:01:51;9.68;;;3.13;;
37955;SDS011;23776;51.592;7.180;2023-08-07T11:04:19;11.30;;;3.45;;
37955;SDS011;23776;51.592;7.180;2023-08-07T11:06:49;13.30;;;3.10;;
37955;SDS011;23776;51.592;7.180;2023-08-07T11:09:15;11.07;;;3.38;;
37955;SDS011;23776;51.592;7.180;2023-08-07T11:11:47;16.55;;;3.17;;
37955;SDS011;23776;51.592;7.180;2023-08-07T11:14:17;12.95;;;2.60;;
37955;SDS011;23776;51.592;7.180;2023-08-07T11:16:44;16.70;;;3.65;;
37955;SDS011;23776;51.592;7.180;2023-08-07T11:19:13;9.63;;;2.90;;
37955;SDS011;23776;51.592;7.180;2023-08-07T11:21:40;14.85;;;2.90;;
37955;SDS011;23776;51.592;7.180;2023-08-07T11:24:07;18.75;;;2.63;;
37955;SDS011;23776;51.592;7.180;2023-08-07T11:26:33;8.48;;;2.67;;
37955;SDS011;23776;51.592;7.180;2023-08-07T11:28:58;8.90;;;2.25;;
37955;SDS011;23776;51.592;7.180;2023-08-07T11:31:24;13.15;;;3.42;;
37955;SDS011;23776;51.592;7.180;2023-08-07T11:33:51;8.32;;;3.10;;
37955;SDS011;23776;51.592;7.180;2023-08-07T11:36:17;13.15;;;2.60;;
37955;SDS011;23776;51.592;7.180;2023-08-07T11:38:43;14.23;;;2.67;;
37955;SDS011;23776;51.592;7.180;2023-08-07T11:41:10;13.70;;;3.65;;
37955;SDS011;23776;51.592;7.180;2023-08-07T11:43:40;13.02;;;2.92;;
37955;SDS011;23776;51.592;7.180;2023-08-07T11:46:07;11.73;;;2.80;;
37955;SDS011;23776;51.592;7.180;2023-08-07T11:48:34;13.63;;;2.80;;
37955;SDS011;23776;51.592;7.180;2023-08-07T11:51:01;11.20;;;2.40;;
37955;SDS011;23776;51.592;7.180;2023-08-07T11:53:30;7.43;;;2.42;;
37955;SDS011;23776;51.592;7.180;2023-08-07T11:56:01;7.97;;;1.63;;
37955;SDS011;23776;51.592;7.180;2023-08-07T11:58:42;8.80;;;2.42;;
37955;SDS011;23776;51.592;7.180;2023-08-07T12:01:13;5.47;;;2.45;;
37955;SDS011;23776;51.592;7.180;2023-08-07T12:06:33;9.07;;;2.47;;
37955;SDS011;23776;51.592;7.180;2023-08-07T12:09:00;8.75;;;1.90;;
37955;SDS011;23776;51.592;7.180;2023-08-07T12:11:26;14.73;;;3.42;;
37955;SDS011;23776;51.592;7.180;2023-08-07T12:13:53;10.85;;;2.53;;
37955;SDS011;23776;51.592;7.180;2023-08-07T12:16:19;9.02;;;2.00;;
37955;SDS011;23776;51.592;7.180;2023-08-07T12:18:50;10.60;;;2.35;;
37955;SDS011;23776;51.592;7.180;2023-08-07T12:21:17;16.50;;;2.53;;
37955;SDS011;23776;51.592;7.180;2023-08-07T12:23:49;15.65;;;2.72;;
37955;SDS011;23776;51.592;7.180;2023-08-07T12:26:16;13.77;;;2.67;;
37955;SDS011;23776;51.592;7.180;2023-08-07T12:28:42;7.82;;;2.33;;
37955;SDS011;23776;51.592;7.180;2023-08-07T12:31:08;11.80;;;2.55;;
37955;SDS011;23776;51.592;7.180;2023-08-07T12:33:34;6.85;;;2.35;;
37955;SDS011;23776;51.592;7.180;2023-08-07T12:36:00;14.35;;;2.50;;
37955;SDS011;23776;51.592;7.180;2023-08-07T12:38:27;7.72;;;2.80;;
37955;SDS011;23776;51.592;7.180;2023-08-07T12:40:53;5.88;;;2.00;;
37955;SDS011;23776;51.592;7.180;2023-08-07T12:43:19;9.30;;;2.50;;
37955;SDS011;23776;51.592;7.180;2023-08-07T12:45:45;8.98;;;2.22;;
37955;SDS011;23776;51.592;7.180;2023-08-07T12:48:11;10.60;;;2.53;;
37955;SDS011;23776;51.592;7.180;2023-08-07T12:50:36;6.20;;;2.47;;
37955;SDS011;23776;51.592;7.180;2023-08-07T12:53:02;9.75;;;2.42;;
37955;SDS011;23776;51.592;7.180;2023-08-07T12:55:28;13.13;;;2.33;;
37955;SDS011;23776;51.592;7.180;2023-08-07T12:57:54;8.57;;;2.30;;
37955;SDS011;23776;51.592;7.180;2023-08-07T13:00:21;7.03;;;2.00;;
37955;SDS011;23776;51.592;7.180;2023-08-07T13:02:48;7.43;;;1.73;;
37955;SDS011;23776;51.592;7.180;2023-08-07T13:05:14;11.30;;;2.63;;
37955;SDS011;23776;51.592;7.180;2023-08-07T13:07:42;6.65;;;2.00;;
37955;SDS011;23776;51.592;7.180;2023-08-07T13:10:08;8.65;;;1.90;;
37955;SDS011;23776;51.592;7.180;2023-08-07T13:12:36;8.00;;;2.33;;
37955;SDS011;23776;51.592;7.180;2023-08-07T13:15:03;7.60;;;2.08;;
37955;SDS011;23776;51.592;7.180;2023-08-07T13:17:30;6.88;;;1.80;;
37955;SDS011;23776;51.592;7.180;2023-08-07T13:19:57;7.72;;;2.33;;
37955;SDS011;23776;51.592;7.180;2023-08-07T13:22:23;8.30;;;2.38;;
37955;SDS011;23776;51.592;7.180;2023-08-07T13:24:48;8.02;;;1.70;;
37955;SDS011;23776;51.592;7.180;2023-08-07T13:27:14;7.03;;;2.05;;
37955;SDS011;23776;51.592;7.180;2023-08-07T13:29:39;14.10;;;2.45;;
37955;SDS011;23776;51.592;7.180;2023-08-07T13:32:05;9.95;;;1.98;;
37955;SDS011;23776;51.592;7.180;2023-08-07T13:34:37;8.05;;;2.08;;
37955;SDS011;23776;51.592;7.180;2023-08-07T13:37:05;7.78;;;1.80;;
37955;SDS011;23776;51.592;7.180;2023-08-07T13:39:32;9.20;;;2.08;;
37955;SDS011;23776;51.592;7.180;2023-08-07T13:41:58;7.10;;;1.77;;
37955;SDS011;23776;51.592;7.180;2023-08-07T13:44:25;16.05;;;2.58;;
37955;SDS011;23776;51.592;7.180;2023-08-07T13:46:51;7.22;;;2.25;;
37955;SDS011;23776;51.592;7.180;2023-08-07T13:49:16;9.25;;;2.00;;
37955;SDS011;23776;51.592;7.180;2023-08-07T13:51:42;10.85;;;2.92;;
37955;SDS011;23776;51.592;7.180;2023-08-07T13:54:08;6.57;;;2.22;;
37955;SDS011;23776;51.592;7.180;2023-08-07T13:56:34;8.20;;;2.40;;
37955;SDS011;23776;51.592;7.180;2023-08-07T13:59:00;6.35;;;2.28;;
37955;SDS011;23776;51.592;7.180;2023-08-07T14:01:25;10.70;;;2.58;;
37955;SDS011;23776;51.592;7.180;2023-08-07T14:03:51;5.90;;;2.55;;
37955;SDS011;23776;51.592;7.180;2023-08-07T14:06:17;9.32;;;2.95;;
37955;SDS011;23776;51.592;7.180;2023-08-07T14:08:42;12.70;;;2.63;;
37955;SDS011;23776;51.592;7.180;2023-08-07T14:11:08;8.18;;;2.42;;
37955;SDS011;23776;51.592;7.180;2023-08-07T14:13:34;4.88;;;2.10;;
37955;SDS011;23776;51.592;7.180;2023-08-07T14:15:59;8.70;;;2.22;;
37955;SDS011;23776;51.592;7.180;2023-08-07T14:18:25;10.77;;;2.03;;
37955;SDS011;23776;51.592;7.180;2023-08-07T14:20:51;8.65;;;2.47;;
37955;SDS011;23776;51.592;7.180;2023-08-07T14:23:17;7.35;;;2.30;;
37955;SDS011;23776;51.592;7.180;2023-08-07T14:25:43;9.15;;;1.95;;
37955;SDS011;23776;51.592;7.180;2023-08-07T14:28:10;8.05;;;1.90;;
37955;SDS011;23776;51.592;7.180;2023-08-07T14:30:36;9.02;;;2.20;;
37955;SDS011;23776;51.592;7.180;2023-08-07T14:33:01;5.80;;;1.70;;
37955;SDS011;23776;51.592;7.180;2023-08-07T14:35:27;7.35;;;1.58;;
37955;SDS011;23776;51.592;7.180;2023-08-07T14:37:52;8.32;;;2.05;;
37955;SDS011;23776;51.592;7.180;2023-08-07T14:40:18;5.20;;;1.90;;
37955;SDS011;23776;51.592;7.180;2023-08-07T14:42:44;6.47;;;2.22;;
37955;SDS011;23776;51.592;7.180;2023-08-07T14:45:10;5.82;;;2.30;;
37955;SDS011;23776;51.592;7.180;2023-08-07T14:47:35;6.43;;;2.20;;
37955;SDS011;23776;51.592;7.180;2023-08-07T14:50:01;10.05;;;2.20;;
37955;SDS011;23776;51.592;7.180;2023-08-07T14:52:27;7.47;;;2.22;;